sensor_id;sensor_type;location;lat;lon;timestamp;temperature;humidity
3868;DHT22;1949;48.152;11.528;2023-03-02T00:02:25;10.50;38.40
3868;DHT22;1949;48.152;11.528;2023-03-02T00:04:55;10.60;38.60
3868;DHT22;1949;48.152;11.528;2023-03-02T00:07:31;10.50;38.40
3868;DHT22;1949;48.152;11.528;2023-03-02T00:10:01;10.50;38.40
3868;DHT22;1949;48.152;11.528;2023-03-02T00:12:28;10.60;38.50
3868;DHT22;1949;48.152;11.528;2023-03-02T00:14:55;10.40;38.30
3868;DHT22;1949;48.152;11.528;2023-03-02T00:17:23;10.40;38.40
3868;DHT22;1949;48.152;11.528;2023-03-02T00:19:56;10.40;38.50
3868;DHT22;1949;48.152;11.528;2023-03-02T00:22:40;10.40;38.50
3868;DHT22;1949;48.152;11.528;2023-03-02T00:25:07;10.40;38.50
3868;DHT22;1949;48.152;11.528;2023-03-02T00:27:35;10.30;38.40
3868;DHT22;1949;48.152;11.528;2023-03-02T00:30:03;10.40;38.50
3868;DHT22;1949;48.152;11.528;2023-03-02T00:32:29;10.40;38.50
3868;DHT22;1949;48.152;11.528;2023-03-02T00:34:56;10.40;38.60
3868;DHT22;1949;48.152;11.528;2023-03-02T00:37:23;10.30;38.50
3868;DHT22;1949;48.152;11.528;2023-03-02T00:39:52;10.30;38.50
3868;DHT22;1949;48.152;11.528;2023-03-02T00:42:27;10.40;38.70
3868;DHT22;1949;48.152;11.528;2023-03-02T00:44:57;10.40;38.70
3868;DHT22;1949;48.152;11.528;2023-03-02T00:47:27;10.30;38.60
3868;DHT22;1949;48.152;11.528;2023-03-02T00:49:53;10.30;38.70
3868;DHT22;1949;48.152;11.528;2023-03-02T00:52:19;10.30;38.70
3868;DHT22;1949;48.152;11.528;2023-03-02T00:54:45;10.30;38.60
3868;DHT22;1949;48.152;11.528;2023-03-02T00:57:16;10.30;38.60
3868;DHT22;1949;48.152;11.528;2023-03-02T00:59:43;10.30;38.70
3868;DHT22;1949;48.152;11.528;2023-03-02T01:02:11;10.20;38.50
3868;DHT22;1949;48.152;11.528;2023-03-02T01:04:41;10.30;38.70
3868;DHT22;1949;48.152;11.528;2023-03-02T01:07:15;10.20;38.70
3868;DHT22;1949;48.152;11.528;2023-03-02T01:09:51;10.20;38.70
3868;DHT22;1949;48.152;11.528;2023-03-02T01:12:21;10.20;38.80
3868;DHT22;1949;48.152;11.528;2023-03-02T01:14:48;10.20;38.80
3868;DHT22;1949;48.152;11.528;2023-03-02T01:17:18;10.20;38.70
3868;DHT22;1949;48.152;11.528;2023-03-02T01:19:46;10.20;38.60
3868;DHT22;1949;48.152;11.528;2023-03-02T01:22:14;10.30;38.70
3868;DHT22;1949;48.152;11.528;2023-03-02T01:24:40;10.20;38.70
3868;DHT22;1949;48.152;11.528;2023-03-02T01:27:12;10.20;38.70
3868;DHT22;1949;48.152;11.528;2023-03-02T01:29:38;10.20;38.70
3868;DHT22;1949;48.152;11.528;2023-03-02T01:32:11;10.20;38.60
3868;DHT22;1949;48.152;11.528;2023-03-02T01:34:38;10.20;38.70
3868;DHT22;1949;48.152;11.528;2023-03-02T01:37:11;10.20;38.70
3868;DHT22;1949;48.152;11.528;2023-03-02T01:39:37;10.20;38.70
3868;DHT22;1949;48.152;11.528;2023-03-02T01:42:03;10.20;38.80
3868;DHT22;1949;48.152;11.528;2023-03-02T01:44:39;10.10;38.70
3868;DHT22;1949;48.152;11.528;2023-03-02T01:47:21;10.20;38.80
3868;DHT22;1949;48.152;11.528;2023-03-02T01:50:03;10.20;38.80
3868;DHT22;1949;48.152;11.528;2023-03-02T01:52:32;10.20;38.90
3868;DHT22;1949;48.152;11.528;2023-03-02T01:55:03;10.10;38.70
3868;DHT22;1949;48.152;11.528;2023-03-02T01:57:33;10.10;38.80
3868;DHT22;1949;48.152;11.528;2023-03-02T02:00:15;10.10;38.80
3868;DHT22;1949;48.152;11.528;2023-03-02T02:02:46;10.10;38.80
3868;DHT22;1949;48.152;11.528;2023-03-02T02:05:21;10.20;38.90
3868;DHT22;1949;48.152;11.528;2023-03-02T02:07:55;10.10;38.80
3868;DHT22;1949;48.152;11.528;2023-03-02T02:10:24;10.10;38.80
3868;DHT22;1949;48.152;11.528;2023-03-02T02:12:50;10.10;38.80
3868;DHT22;1949;48.152;11.528;2023-03-02T02:15:15;10.10;38.80
3868;DHT22;1949;48.152;11.528;2023-03-02T02:17:42;10.10;38.80
3868;DHT22;1949;48.152;11.528;2023-03-02T02:20:38;10.20;38.90
3868;DHT22;1949;48.152;11.528;2023-03-02T02:28:40;10.10;38.90
3868;DHT22;1949;48.152;11.528;2023-03-02T02:31:20;10.00;38.80
3868;DHT22;1949;48.152;11.528;2023-03-02T02:33:58;10.00;38.80
3868;DHT22;1949;48.152;11.528;2023-03-02T02:36:33;10.00;38.80
3868;DHT22;1949;48.152;11.528;2023-03-02T02:39:20;10.00;38.80
3868;DHT22;1949;48.152;11.528;2023-03-02T02:41:51;10.00;38.90
3868;DHT22;1949;48.152;11.528;2023-03-02T02:44:18;10.00;39.00
3868;DHT22;1949;48.152;11.528;2023-03-02T02:46:47;10.00;38.90
3868;DHT22;1949;48.152;11.528;2023-03-02T02:49:30;10.00;39.00
3868;DHT22;1949;48.152;11.528;2023-03-02T02:52:03;10.00;39.00
3868;DHT22;1949;48.152;11.528;2023-03-02T02:54:35;10.00;39.00
3868;DHT22;1949;48.152;11.528;2023-03-02T02:57:13;10.10;39.10
3868;DHT22;1949;48.152;11.528;2023-03-02T02:59:51;10.10;39.10
3868;DHT22;1949;48.152;11.528;2023-03-02T03:02:26;10.00;39.00
3868;DHT22;1949;48.152;11.528;2023-03-02T03:04:52;10.00;39.00
3868;DHT22;1949;48.152;11.528;2023-03-02T03:07:30;10.00;39.00
3868;DHT22;1949;48.152;11.528;2023-03-02T03:10:14;9.90;39.90
3868;DHT22;1949;48.152;11.528;2023-03-02T03:12:42;9.90;39.90
3868;DHT22;1949;48.152;11.528;2023-03-02T03:15:09;9.90;39.90
3868;DHT22;1949;48.152;11.528;2023-03-02T03:17:36;9.90;39.90
3868;DHT22;1949;48.152;11.528;2023-03-02T03:20:02;9.90;39.90
3868;DHT22;1949;48.152;11.528;2023-03-02T03:22:37;9.90;39.90
3868;DHT22;1949;48.152;11.528;2023-03-02T03:25:06;9.90;39.90
3868;DHT22;1949;48.152;11.528;2023-03-02T03:27:31;9.90;39.90
3868;DHT22;1949;48.152;11.528;2023-03-02T03:30:02;9.90;39.90
3868;DHT22;1949;48.152;11.528;2023-03-02T03:32:35;9.90;39.90
3868;DHT22;1949;48.152;11.528;2023-03-02T03:35:02;9.90;40.00
3868;DHT22;1949;48.152;11.528;2023-03-02T03:37:33;9.90;40.00
3868;DHT22;1949;48.152;11.528;2023-03-02T03:40:01;9.80;40.00
3868;DHT22;1949;48.152;11.528;2023-03-02T03:42:27;9.80;40.00
3868;DHT22;1949;48.152;11.528;2023-03-02T03:44:56;10.00;39.30
3868;DHT22;1949;48.152;11.528;2023-03-02T03:47:23;9.80;40.10
3868;DHT22;1949;48.152;11.528;2023-03-02T03:49:52;9.80;40.10
3868;DHT22;1949;48.152;11.528;2023-03-02T03:52:17;9.80;40.10
3868;DHT22;1949;48.152;11.528;2023-03-02T03:54:50;9.80;40.10
3868;DHT22;1949;48.152;11.528;2023-03-02T03:57:16;9.90;40.20
3868;DHT22;1949;48.152;11.528;2023-03-02T03:59:42;9.80;40.10
3868;DHT22;1949;48.152;11.528;2023-03-02T04:02:08;9.80;40.10
3868;DHT22;1949;48.152;11.528;2023-03-02T04:04:36;9.80;40.10
3868;DHT22;1949;48.152;11.528;2023-03-02T04:07:02;9.80;40.10
3868;DHT22;1949;48.152;11.528;2023-03-02T04:09:54;9.80;40.20
3868;DHT22;1949;48.152;11.528;2023-03-02T04:12:29;9.80;40.20
3868;DHT22;1949;48.152;11.528;2023-03-02T04:14:55;9.80;40.10
3868;DHT22;1949;48.152;11.528;2023-03-02T04:17:21;9.80;40.10
3868;DHT22;1949;48.152;11.528;2023-03-02T04:19:47;9.80;40.10
3868;DHT22;1949;48.152;11.528;2023-03-02T04:22:15;9.80;40.20
3868;DHT22;1949;48.152;11.528;2023-03-02T04:24:42;9.70;40.10
3868;DHT22;1949;48.152;11.528;2023-03-02T04:27:14;9.70;40.20
3868;DHT22;1949;48.152;11.528;2023-03-02T04:29:40;9.70;40.20
3868;DHT22;1949;48.152;11.528;2023-03-02T04:32:08;9.70;40.20
3868;DHT22;1949;48.152;11.528;2023-03-02T04:34:34;9.70;40.30
3868;DHT22;1949;48.152;11.528;2023-03-02T04:37:02;9.70;40.30
3868;DHT22;1949;48.152;11.528;2023-03-02T04:39:28;9.70;40.30
3868;DHT22;1949;48.152;11.528;2023-03-02T04:41:55;9.70;40.30
3868;DHT22;1949;48.152;11.528;2023-03-02T04:44:21;9.70;40.40
3868;DHT22;1949;48.152;11.528;2023-03-02T04:46:53;9.70;40.40
3868;DHT22;1949;48.152;11.528;2023-03-02T04:49:23;9.70;40.40
3868;DHT22;1949;48.152;11.528;2023-03-02T04:51:52;9.70;40.40
3868;DHT22;1949;48.152;11.528;2023-03-02T04:54:23;9.70;40.40
3868;DHT22;1949;48.152;11.528;2023-03-02T04:57:00;9.70;40.40
3868;DHT22;1949;48.152;11.528;2023-03-02T04:59:27;9.70;40.40
3868;DHT22;1949;48.152;11.528;2023-03-02T05:01:57;9.70;40.40
3868;DHT22;1949;48.152;11.528;2023-03-02T05:04:23;9.70;40.40
3868;DHT22;1949;48.152;11.528;2023-03-02T05:06:50;9.70;40.40
3868;DHT22;1949;48.152;11.528;2023-03-02T05:09:23;9.70;40.40
3868;DHT22;1949;48.152;11.528;2023-03-02T05:11:59;9.70;40.40
3868;DHT22;1949;48.152;11.528;2023-03-02T05:14:25;9.70;40.40
3868;DHT22;1949;48.152;11.528;2023-03-02T05:16:51;9.70;40.40
3868;DHT22;1949;48.152;11.528;2023-03-02T05:19:17;9.80;40.50
3868;DHT22;1949;48.152;11.528;2023-03-02T05:21:44;9.70;40.50
3868;DHT22;1949;48.152;11.528;2023-03-02T05:24:17;9.70;40.50
3868;DHT22;1949;48.152;11.528;2023-03-02T05:26:48;9.60;40.40
3868;DHT22;1949;48.152;11.528;2023-03-02T05:29:32;9.60;40.40
3868;DHT22;1949;48.152;11.528;2023-03-02T05:32:04;9.60;40.40
3868;DHT22;1949;48.152;11.528;2023-03-02T05:35:07;9.50;40.30
3868;DHT22;1949;48.152;11.528;2023-03-02T05:37:36;9.60;40.30
3868;DHT22;1949;48.152;11.528;2023-03-02T05:40:15;9.50;40.20
3868;DHT22;1949;48.152;11.528;2023-03-02T05:42:51;9.40;40.20
3868;DHT22;1949;48.152;11.528;2023-03-02T05:45:42;9.40;40.30
3868;DHT22;1949;48.152;11.528;2023-03-02T05:48:12;9.30;40.40
3868;DHT22;1949;48.152;11.528;2023-03-02T05:51:00;9.30;40.70
3868;DHT22;1949;48.152;11.528;2023-03-02T05:53:49;9.30;40.70
3868;DHT22;1949;48.152;11.528;2023-03-02T05:56:15;9.30;40.70
3868;DHT22;1949;48.152;11.528;2023-03-02T05:58:45;9.30;41.20
3868;DHT22;1949;48.152;11.528;2023-03-02T06:01:15;9.30;40.70
3868;DHT22;1949;48.152;11.528;2023-03-02T06:03:42;9.30;40.70
3868;DHT22;1949;48.152;11.528;2023-03-02T06:06:18;9.30;40.60
3868;DHT22;1949;48.152;11.528;2023-03-02T06:08:43;9.30;40.70
3868;DHT22;1949;48.152;11.528;2023-03-02T06:14:01;9.30;40.90
3868;DHT22;1949;48.152;11.528;2023-03-02T06:16:26;9.30;40.70
3868;DHT22;1949;48.152;11.528;2023-03-02T06:18:52;9.30;40.70
3868;DHT22;1949;48.152;11.528;2023-03-02T06:21:38;9.30;40.90
3868;DHT22;1949;48.152;11.528;2023-03-02T06:24:15;9.30;40.90
3868;DHT22;1949;48.152;11.528;2023-03-02T06:26:43;9.40;41.00
3868;DHT22;1949;48.152;11.528;2023-03-02T06:29:22;9.30;40.90
3868;DHT22;1949;48.152;11.528;2023-03-02T06:31:53;9.30;41.00
3868;DHT22;1949;48.152;11.528;2023-03-02T06:34:21;9.40;41.10
3868;DHT22;1949;48.152;11.528;2023-03-02T06:36:47;9.40;41.10
3868;DHT22;1949;48.152;11.528;2023-03-02T06:39:13;9.50;41.10
3868;DHT22;1949;48.152;11.528;2023-03-02T06:41:46;9.50;41.00
3868;DHT22;1949;48.152;11.528;2023-03-02T06:44:12;9.50;40.90
3868;DHT22;1949;48.152;11.528;2023-03-02T06:46:41;9.50;41.00
3868;DHT22;1949;48.152;11.528;2023-03-02T06:49:07;9.60;41.00
3868;DHT22;1949;48.152;11.528;2023-03-02T06:52:05;9.60;40.90
3868;DHT22;1949;48.152;11.528;2023-03-02T06:54:40;9.60;41.10
3868;DHT22;1949;48.152;11.528;2023-03-02T06:57:06;9.60;41.10
3868;DHT22;1949;48.152;11.528;2023-03-02T06:59:32;9.60;41.00
3868;DHT22;1949;48.152;11.528;2023-03-02T07:02:00;9.60;41.10
3868;DHT22;1949;48.152;11.528;2023-03-02T07:04:30;9.70;41.20
3868;DHT22;1949;48.152;11.528;2023-03-02T07:07:13;9.70;41.10
3868;DHT22;1949;48.152;11.528;2023-03-02T07:10:01;9.70;41.00
3868;DHT22;1949;48.152;11.528;2023-03-02T07:12:29;9.70;41.00
3868;DHT22;1949;48.152;11.528;2023-03-02T07:15:00;9.70;41.00
3868;DHT22;1949;48.152;11.528;2023-03-02T07:17:26;9.70;41.10
3868;DHT22;1949;48.152;11.528;2023-03-02T07:20:12;9.80;41.10
3868;DHT22;1949;48.152;11.528;2023-03-02T07:22:41;9.80;41.10
3868;DHT22;1949;48.152;11.528;2023-03-02T07:25:07;9.80;40.90
3868;DHT22;1949;48.152;11.528;2023-03-02T07:27:47;9.80;40.80
3868;DHT22;1949;48.152;11.528;2023-03-02T07:30:14;9.80;40.90
3868;DHT22;1949;48.152;11.528;2023-03-02T07:32:52;9.80;41.00
3868;DHT22;1949;48.152;11.528;2023-03-02T07:35:23;9.90;41.10
3868;DHT22;1949;48.152;11.528;2023-03-02T07:37:51;9.80;40.90
3868;DHT22;1949;48.152;11.528;2023-03-02T07:40:17;9.80;41.00
3868;DHT22;1949;48.152;11.528;2023-03-02T07:42:43;9.80;40.90
3868;DHT22;1949;48.152;11.528;2023-03-02T07:45:16;9.80;40.80
3868;DHT22;1949;48.152;11.528;2023-03-02T07:47:54;9.80;40.90
3868;DHT22;1949;48.152;11.528;2023-03-02T07:50:20;9.70;40.90
3868;DHT22;1949;48.152;11.528;2023-03-02T07:52:46;9.70;40.90
3868;DHT22;1949;48.152;11.528;2023-03-02T07:55:11;9.70;41.00
3868;DHT22;1949;48.152;11.528;2023-03-02T07:57:42;9.80;41.10
3868;DHT22;1949;48.152;11.528;2023-03-02T08:00:31;9.80;41.10
3868;DHT22;1949;48.152;11.528;2023-03-02T08:03:01;9.80;41.00
3868;DHT22;1949;48.152;11.528;2023-03-02T08:05:54;9.90;41.30
3868;DHT22;1949;48.152;11.528;2023-03-02T08:08:20;9.90;41.10
3868;DHT22;1949;48.152;11.528;2023-03-02T08:10:45;10.00;40.20
3868;DHT22;1949;48.152;11.528;2023-03-02T08:13:19;10.00;40.20
3868;DHT22;1949;48.152;11.528;2023-03-02T08:15:45;10.00;40.20
3868;DHT22;1949;48.152;11.528;2023-03-02T08:18:10;10.10;40.20
3868;DHT22;1949;48.152;11.528;2023-03-02T08:20:38;10.10;40.10
3868;DHT22;1949;48.152;11.528;2023-03-02T08:23:04;10.20;40.30
3868;DHT22;1949;48.152;11.528;2023-03-02T08:25:30;10.20;40.20
3868;DHT22;1949;48.152;11.528;2023-03-02T08:27:56;10.20;40.10
3868;DHT22;1949;48.152;11.528;2023-03-02T08:30:23;10.20;40.10
3868;DHT22;1949;48.152;11.528;2023-03-02T08:32:55;10.20;40.20
3868;DHT22;1949;48.152;11.528;2023-03-02T08:35:23;10.10;40.10
3868;DHT22;1949;48.152;11.528;2023-03-02T08:37:48;10.30;40.20
3868;DHT22;1949;48.152;11.528;2023-03-02T08:40:15;10.10;40.10
3868;DHT22;1949;48.152;11.528;2023-03-02T08:42:41;10.10;40.10
3868;DHT22;1949;48.152;11.528;2023-03-02T08:45:09;10.20;40.30
3868;DHT22;1949;48.152;11.528;2023-03-02T08:47:34;10.20;40.40
3868;DHT22;1949;48.152;11.528;2023-03-02T08:50:05;10.20;40.40
3868;DHT22;1949;48.152;11.528;2023-03-02T08:52:33;10.20;40.40
3868;DHT22;1949;48.152;11.528;2023-03-02T08:55:00;10.20;40.40
3868;DHT22;1949;48.152;11.528;2023-03-02T08:57:26;10.30;40.40
3868;DHT22;1949;48.152;11.528;2023-03-02T08:59:53;10.30;40.20
3868;DHT22;1949;48.152;11.528;2023-03-02T09:02:25;10.30;40.20
3868;DHT22;1949;48.152;11.528;2023-03-02T09:04:52;10.30;40.30
3868;DHT22;1949;48.152;11.528;2023-03-02T09:07:22;10.30;40.20
3868;DHT22;1949;48.152;11.528;2023-03-02T09:09:48;10.40;40.50
3868;DHT22;1949;48.152;11.528;2023-03-02T09:12:15;10.40;40.40
3868;DHT22;1949;48.152;11.528;2023-03-02T09:14:48;10.40;40.40
3868;DHT22;1949;48.152;11.528;2023-03-02T09:17:14;10.50;40.50
3868;DHT22;1949;48.152;11.528;2023-03-02T09:19:41;10.50;40.50
3868;DHT22;1949;48.152;11.528;2023-03-02T09:22:10;10.50;40.30
3868;DHT22;1949;48.152;11.528;2023-03-02T09:24:38;10.50;40.20
3868;DHT22;1949;48.152;11.528;2023-03-02T09:27:08;10.50;40.40
3868;DHT22;1949;48.152;11.528;2023-03-02T09:29:39;10.60;40.50
3868;DHT22;1949;48.152;11.528;2023-03-02T09:32:11;10.60;40.60
3868;DHT22;1949;48.152;11.528;2023-03-02T09:34:43;10.60;40.40
3868;DHT22;1949;48.152;11.528;2023-03-02T09:37:10;10.70;40.50
3868;DHT22;1949;48.152;11.528;2023-03-02T09:39:37;10.60;40.30
3868;DHT22;1949;48.152;11.528;2023-03-02T09:42:25;10.70;40.50
3868;DHT22;1949;48.152;11.528;2023-03-02T09:50:40;10.80;40.70
3868;DHT22;1949;48.152;11.528;2023-03-02T09:56:15;10.80;40.60
3868;DHT22;1949;48.152;11.528;2023-03-02T09:58:47;10.70;40.50
3868;DHT22;1949;48.152;11.528;2023-03-02T10:01:19;10.70;41.00
3868;DHT22;1949;48.152;11.528;2023-03-02T10:04:02;10.80;41.30
3868;DHT22;1949;48.152;11.528;2023-03-02T10:06:32;10.90;41.10
3868;DHT22;1949;48.152;11.528;2023-03-02T10:08:58;10.90;41.00
3868;DHT22;1949;48.152;11.528;2023-03-02T10:15:16;11.00;41.00
3868;DHT22;1949;48.152;11.528;2023-03-02T10:17:30;11.10;41.00
3868;DHT22;1949;48.152;11.528;2023-03-02T10:20:26;11.10;40.90
3868;DHT22;1949;48.152;11.528;2023-03-02T10:23:11;11.20;40.90
3868;DHT22;1949;48.152;11.528;2023-03-02T10:25:51;11.20;40.90
3868;DHT22;1949;48.152;11.528;2023-03-02T10:28:24;11.10;40.80
3868;DHT22;1949;48.152;11.528;2023-03-02T10:31:32;11.30;40.90
3868;DHT22;1949;48.152;11.528;2023-03-02T10:34:00;11.30;40.90
3868;DHT22;1949;48.152;11.528;2023-03-02T10:36:28;11.30;40.90
3868;DHT22;1949;48.152;11.528;2023-03-02T10:38:56;11.40;40.90
3868;DHT22;1949;48.152;11.528;2023-03-02T10:41:44;11.40;41.00
3868;DHT22;1949;48.152;11.528;2023-03-02T10:44:22;11.40;40.90
3868;DHT22;1949;48.152;11.528;2023-03-02T10:46:49;11.50;41.00
3868;DHT22;1949;48.152;11.528;2023-03-02T10:51:57;11.50;41.00
3868;DHT22;1949;48.152;11.528;2023-03-02T10:54:24;11.50;40.90
3868;DHT22;1949;48.152;11.528;2023-03-02T10:56:52;11.60;41.10
3868;DHT22;1949;48.152;11.528;2023-03-02T11:01:59;11.60;41.00
3868;DHT22;1949;48.152;11.528;2023-03-02T11:04:28;11.70;41.00
3868;DHT22;1949;48.152;11.528;2023-03-02T11:06:54;11.70;41.00
3868;DHT22;1949;48.152;11.528;2023-03-02T11:09:19;11.70;40.80
3868;DHT22;1949;48.152;11.528;2023-03-02T11:11:54;11.70;40.80
3868;DHT22;1949;48.152;11.528;2023-03-02T11:14:21;11.70;40.90
3868;DHT22;1949;48.152;11.528;2023-03-02T11:16:50;11.80;41.00
3868;DHT22;1949;48.152;11.528;2023-03-02T11:19:33;11.80;41.00
3868;DHT22;1949;48.152;11.528;2023-03-02T11:24:38;11.80;40.90
3868;DHT22;1949;48.152;11.528;2023-03-02T11:27:19;11.80;41.00
3868;DHT22;1949;48.152;11.528;2023-03-02T11:29:52;11.80;41.00
3868;DHT22;1949;48.152;11.528;2023-03-02T11:33:24;11.80;41.00
3868;DHT22;1949;48.152;11.528;2023-03-02T11:35:35;11.90;41.20
3868;DHT22;1949;48.152;11.528;2023-03-02T11:38:18;12.00;41.20
3868;DHT22;1949;48.152;11.528;2023-03-02T11:40:59;12.00;41.00
3868;DHT22;1949;48.152;11.528;2023-03-02T11:43:29;12.10;41.10
3868;DHT22;1949;48.152;11.528;2023-03-02T11:46:04;12.10;41.20
3868;DHT22;1949;48.152;11.528;2023-03-02T11:49:02;12.20;41.10
3868;DHT22;1949;48.152;11.528;2023-03-02T11:51:35;12.40;41.20
3868;DHT22;1949;48.152;11.528;2023-03-02T11:54:05;12.40;41.70
3868;DHT22;1949;48.152;11.528;2023-03-02T11:56:33;12.50;41.20
3868;DHT22;1949;48.152;11.528;2023-03-02T11:59:03;12.70;41.30
3868;DHT22;1949;48.152;11.528;2023-03-02T12:01:34;12.80;41.20
3868;DHT22;1949;48.152;11.528;2023-03-02T12:04:35;13.00;41.40
3868;DHT22;1949;48.152;11.528;2023-03-02T12:10:05;13.30;41.10
3868;DHT22;1949;48.152;11.528;2023-03-02T12:12:41;13.50;41.20
3868;DHT22;1949;48.152;11.528;2023-03-02T12:15:36;13.70;40.80
3868;DHT22;1949;48.152;11.528;2023-03-02T12:18:58;13.80;40.80
3868;DHT22;1949;48.152;11.528;2023-03-02T12:21:03;14.00;40.90
3868;DHT22;1949;48.152;11.528;2023-03-02T12:23:35;14.10;40.80
3868;DHT22;1949;48.152;11.528;2023-03-02T12:32:09;14.70;40.90
3868;DHT22;1949;48.152;11.528;2023-03-02T12:34:38;14.90;40.90
3868;DHT22;1949;48.152;11.528;2023-03-02T12:38:21;15.10;40.80
3868;DHT22;1949;48.152;11.528;2023-03-02T12:43:41;15.60;40.70
3868;DHT22;1949;48.152;11.528;2023-03-02T12:54:22;16.50;39.90
3868;DHT22;1949;48.152;11.528;2023-03-02T12:56:49;16.60;39.20
3868;DHT22;1949;48.152;11.528;2023-03-02T12:59:28;16.60;39.10
3868;DHT22;1949;48.152;11.528;2023-03-02T13:02:27;16.70;39.20
3868;DHT22;1949;48.152;11.528;2023-03-02T13:05:00;16.70;39.00
3868;DHT22;1949;48.152;11.528;2023-03-02T13:07:33;16.80;38.80
3868;DHT22;1949;48.152;11.528;2023-03-02T13:10:02;16.80;38.70
3868;DHT22;1949;48.152;11.528;2023-03-02T13:12:33;16.80;38.80
3868;DHT22;1949;48.152;11.528;2023-03-02T13:15:02;17.00;39.10
3868;DHT22;1949;48.152;11.528;2023-03-02T13:17:39;17.20;39.10
3868;DHT22;1949;48.152;11.528;2023-03-02T13:20:09;17.40;39.00
3868;DHT22;1949;48.152;11.528;2023-03-02T13:22:35;17.60;38.80
3868;DHT22;1949;48.152;11.528;2023-03-02T13:25:03;17.80;38.60
3868;DHT22;1949;48.152;11.528;2023-03-02T13:27:36;18.00;38.20
3868;DHT22;1949;48.152;11.528;2023-03-02T13:30:32;18.20;38.10
3868;DHT22;1949;48.152;11.528;2023-03-02T13:33:01;18.30;38.00
3868;DHT22;1949;48.152;11.528;2023-03-02T13:35:32;18.50;38.00
3868;DHT22;1949;48.152;11.528;2023-03-02T13:38:17;18.70;37.90
3868;DHT22;1949;48.152;11.528;2023-03-02T13:40:45;18.90;38.00
3868;DHT22;1949;48.152;11.528;2023-03-02T13:46:05;19.30;37.50
3868;DHT22;1949;48.152;11.528;2023-03-02T13:48:32;19.50;37.20
3868;DHT22;1949;48.152;11.528;2023-03-02T13:51:13;19.70;37.10
3868;DHT22;1949;48.152;11.528;2023-03-02T13:53:42;19.90;36.80
3868;DHT22;1949;48.152;11.528;2023-03-02T13:56:14;20.10;36.60
3868;DHT22;1949;48.152;11.528;2023-03-02T13:58:42;20.20;36.40
3868;DHT22;1949;48.152;11.528;2023-03-02T14:01:10;20.30;36.20
3868;DHT22;1949;48.152;11.528;2023-03-02T14:03:37;20.50;36.00
3868;DHT22;1949;48.152;11.528;2023-03-02T14:06:04;20.60;35.80
3868;DHT22;1949;48.152;11.528;2023-03-02T14:08:31;20.60;35.50
3868;DHT22;1949;48.152;11.528;2023-03-02T14:10:58;20.70;35.50
3868;DHT22;1949;48.152;11.528;2023-03-02T14:13:34;20.80;35.40
3868;DHT22;1949;48.152;11.528;2023-03-02T14:16:01;20.90;35.20
3868;DHT22;1949;48.152;11.528;2023-03-02T14:18:48;20.90;35.20
3868;DHT22;1949;48.152;11.528;2023-03-02T14:21:16;21.00;35.40
3868;DHT22;1949;48.152;11.528;2023-03-02T14:23:43;21.10;35.40
3868;DHT22;1949;48.152;11.528;2023-03-02T14:26:22;21.20;35.50
3868;DHT22;1949;48.152;11.528;2023-03-02T14:28:51;21.30;35.40
3868;DHT22;1949;48.152;11.528;2023-03-02T14:31:17;21.40;35.50
3868;DHT22;1949;48.152;11.528;2023-03-02T14:33:44;21.30;34.40
3868;DHT22;1949;48.152;11.528;2023-03-02T14:36:14;21.10;34.00
3868;DHT22;1949;48.152;11.528;2023-03-02T14:38:42;20.70;33.80
3868;DHT22;1949;48.152;11.528;2023-03-02T14:41:18;20.30;33.60
3868;DHT22;1949;48.152;11.528;2023-03-02T14:43:55;19.90;33.80
3868;DHT22;1949;48.152;11.528;2023-03-02T14:46:21;19.50;34.60
3868;DHT22;1949;48.152;11.528;2023-03-02T14:48:47;19.40;34.70
3868;DHT22;1949;48.152;11.528;2023-03-02T14:51:18;19.20;34.80
3868;DHT22;1949;48.152;11.528;2023-03-02T14:53:46;19.10;35.20
3868;DHT22;1949;48.152;11.528;2023-03-02T14:56:19;19.10;35.30
3868;DHT22;1949;48.152;11.528;2023-03-02T14:58:47;19.20;35.50
3868;DHT22;1949;48.152;11.528;2023-03-02T15:01:14;19.30;35.60
3868;DHT22;1949;48.152;11.528;2023-03-02T15:03:39;19.50;35.50
3868;DHT22;1949;48.152;11.528;2023-03-02T15:06:21;19.50;34.90
3868;DHT22;1949;48.152;11.528;2023-03-02T15:08:51;19.40;34.90
3868;DHT22;1949;48.152;11.528;2023-03-02T15:11:17;19.40;34.90
3868;DHT22;1949;48.152;11.528;2023-03-02T15:13:43;19.40;34.90
3868;DHT22;1949;48.152;11.528;2023-03-02T15:16:10;19.40;34.90
3868;DHT22;1949;48.152;11.528;2023-03-02T15:18:37;19.40;35.00
3868;DHT22;1949;48.152;11.528;2023-03-02T15:21:05;19.30;34.40
3868;DHT22;1949;48.152;11.528;2023-03-02T15:23:32;18.90;34.00
3868;DHT22;1949;48.152;11.528;2023-03-02T15:25:59;18.50;34.10
3868;DHT22;1949;48.152;11.528;2023-03-02T15:28:25;18.20;34.70
3868;DHT22;1949;48.152;11.528;2023-03-02T15:30:54;18.00;35.20
3868;DHT22;1949;48.152;11.528;2023-03-02T15:33:21;17.90;35.30
3868;DHT22;1949;48.152;11.528;2023-03-02T15:35:53;17.80;35.00
3868;DHT22;1949;48.152;11.528;2023-03-02T15:38:19;17.50;34.80
3868;DHT22;1949;48.152;11.528;2023-03-02T15:40:47;17.20;35.00
3868;DHT22;1949;48.152;11.528;2023-03-02T15:43:13;16.90;35.30
3868;DHT22;1949;48.152;11.528;2023-03-02T15:45:44;16.70;35.40
3868;DHT22;1949;48.152;11.528;2023-03-02T15:48:11;16.30;35.50
3868;DHT22;1949;48.152;11.528;2023-03-02T15:50:38;16.10;35.90
3868;DHT22;1949;48.152;11.528;2023-03-02T15:53:04;15.90;36.00
3868;DHT22;1949;48.152;11.528;2023-03-02T15:55:31;15.70;36.30
3868;DHT22;1949;48.152;11.528;2023-03-02T15:57:56;15.60;36.70
3868;DHT22;1949;48.152;11.528;2023-03-02T16:00:24;15.40;36.30
3868;DHT22;1949;48.152;11.528;2023-03-02T16:02:52;15.30;36.40
3868;DHT22;1949;48.152;11.528;2023-03-02T16:05:18;15.20;36.80
3868;DHT22;1949;48.152;11.528;2023-03-02T16:07:44;15.10;36.60
3868;DHT22;1949;48.152;11.528;2023-03-02T16:10:10;14.90;36.70
3868;DHT22;1949;48.152;11.528;2023-03-02T16:12:40;14.80;36.90
3868;DHT22;1949;48.152;11.528;2023-03-02T16:15:06;14.80;37.00
3868;DHT22;1949;48.152;11.528;2023-03-02T16:17:34;14.70;37.00
3868;DHT22;1949;48.152;11.528;2023-03-02T16:20:01;14.60;37.00
3868;DHT22;1949;48.152;11.528;2023-03-02T16:22:27;14.50;37.00
3868;DHT22;1949;48.152;11.528;2023-03-02T16:24:55;14.40;36.90
3868;DHT22;1949;48.152;11.528;2023-03-02T16:27:20;14.30;36.90
3868;DHT22;1949;48.152;11.528;2023-03-02T16:29:47;14.20;36.90
3868;DHT22;1949;48.152;11.528;2023-03-02T16:32:13;13.90;36.90
3868;DHT22;1949;48.152;11.528;2023-03-02T16:34:41;13.80;37.20
3868;DHT22;1949;48.152;11.528;2023-03-02T16:37:07;13.80;37.40
3868;DHT22;1949;48.152;11.528;2023-03-02T16:39:33;13.50;37.30
3868;DHT22;1949;48.152;11.528;2023-03-02T16:41:59;13.40;37.40
3868;DHT22;1949;48.152;11.528;2023-03-02T16:44:24;13.30;37.70
3868;DHT22;1949;48.152;11.528;2023-03-02T16:46:50;13.20;37.70
3868;DHT22;1949;48.152;11.528;2023-03-02T16:49:16;13.10;37.40
3868;DHT22;1949;48.152;11.528;2023-03-02T16:51:42;13.00;37.40
3868;DHT22;1949;48.152;11.528;2023-03-02T16:54:08;12.80;37.50
3868;DHT22;1949;48.152;11.528;2023-03-02T16:56:34;12.70;37.70
3868;DHT22;1949;48.152;11.528;2023-03-02T16:59:01;12.50;37.60
3868;DHT22;1949;48.152;11.528;2023-03-02T17:01:29;12.30;37.80
3868;DHT22;1949;48.152;11.528;2023-03-02T17:03:57;12.20;38.30
3868;DHT22;1949;48.152;11.528;2023-03-02T17:06:32;12.20;38.50
3868;DHT22;1949;48.152;11.528;2023-03-02T17:08:58;12.30;39.30